sensor_id;sensor_type;location;lat;lon;timestamp;pressure;altitude;pressure_sealevel;temperature;humidity
10940;BME280;5522;42.696;23.494;2023-04-30T00:00:06;53735.19;;;-139.68;100.00
10940;BME280;5522;42.696;23.494;2023-04-30T00:02:34;53725.16;;;-139.68;100.00
10940;BME280;5522;42.696;23.494;2023-04-30T00:05:01;53719.13;;;-139.68;100.00
10940;BME280;5522;42.696;23.494;2023-04-30T00:07:27;53735.19;;;-139.68;100.00
10940;BME280;5522;42.696;23.494;2023-04-30T00:09:54;53759.31;;;-139.68;100.00
10940;BME280;5522;42.696;23.494;2023-04-30T00:12:21;53725.16;;;-139.68;100.00
10940;BME280;5522;42.696;23.494;2023-04-30T00:14:48;53727.16;;;-139.68;100.00
10940;BME280;5522;42.696;23.494;2023-04-30T00:17:17;53715.09;;;-139.68;100.00
10940;BME280;5522;42.696;23.494;2023-04-30T00:19:43;53717.13;;;-139.68;100.00
10940;BME280;5522;42.696;23.494;2023-04-30T00:22:10;53743.25;;;-139.68;100.00
10940;BME280;5522;42.696;23.494;2023-04-30T00:24:37;53711.09;;;-139.68;100.00
10940;BME280;5522;42.696;23.494;2023-04-30T00:27:04;53763.34;;;-139.68;100.00
10940;BME280;5522;42.696;23.494;2023-04-30T00:29:31;53695.00;;;-139.68;100.00
10940;BME280;5522;42.696;23.494;2023-04-30T00:31:57;53680.94;;;-139.68;100.00
10940;BME280;5522;42.696;23.494;2023-04-30T00:34:26;53713.09;;;-139.68;100.00
10940;BME280;5522;42.696;23.494;2023-04-30T00:36:53;53678.91;;;-139.68;100.00
10940;BME280;5522;42.696;23.494;2023-04-30T00:39:20;53735.19;;;-139.68;100.00
10940;BME280;5522;42.696;23.494;2023-04-30T00:41:47;53745.25;;;-139.68;100.00
10940;BME280;5522;42.696;23.494;2023-04-30T00:44:13;53723.13;;;-139.68;100.00
10940;BME280;5522;42.696;23.494;2023-04-30T00:46:40;53719.13;;;-139.68;100.00
10940;BME280;5522;42.696;23.494;2023-04-30T00:49:07;53703.03;;;-139.68;100.00
10940;BME280;5522;42.696;23.494;2023-04-30T00:51:38;53751.28;;;-139.68;100.00
10940;BME280;5522;42.696;23.494;2023-04-30T00:54:06;53668.88;;;-139.68;100.00
10940;BME280;5522;42.696;23.494;2023-04-30T00:56:33;53735.19;;;-139.68;100.00
10940;BME280;5522;42.696;23.494;2023-04-30T00:59:00;53729.16;;;-139.68;100.00
10940;BME280;5522;42.696;23.494;2023-04-30T01:01:27;53739.22;;;-139.68;100.00
10940;BME280;5522;42.696;23.494;2023-04-30T01:03:54;53743.25;;;-139.68;100.00
10940;BME280;5522;42.696;23.494;2023-04-30T01:06:21;53707.06;;;-139.68;100.00
10940;BME280;5522;42.696;23.494;2023-04-30T01:08:50;53719.13;;;-139.68;100.00
10940;BME280;5522;42.696;23.494;2023-04-30T01:11:25;53733.19;;;-139.68;100.00
10940;BME280;5522;42.696;23.494;2023-04-30T01:13:58;53695.00;;;-139.68;100.00
10940;BME280;5522;42.696;23.494;2023-04-30T01:16:34;53703.03;;;-139.68;100.00
10940;BME280;5522;42.696;23.494;2023-04-30T01:19:08;53686.97;;;-139.68;100.00
10940;BME280;5522;42.696;23.494;2023-04-30T01:21:38;53725.16;;;-139.68;100.00
10940;BME280;5522;42.696;23.494;2023-04-30T01:24:31;53723.13;;;-139.68;100.00
10940;BME280;5522;42.696;23.494;2023-04-30T01:27:09;53707.06;;;-139.68;100.00
10940;BME280;5522;42.696;23.494;2023-04-30T01:29:41;53751.28;;;-139.68;100.00
10940;BME280;5522;42.696;23.494;2023-04-30T01:32:09;53727.16;;;-139.68;100.00
10940;BME280;5522;42.696;23.494;2023-04-30T01:34:36;53743.25;;;-139.68;100.00
10940;BME280;5522;42.696;23.494;2023-04-30T01:37:14;53697.00;;;-139.68;100.00
10940;BME280;5522;42.696;23.494;2023-04-30T01:39:49;53753.28;;;-139.68;100.00
10940;BME280;5522;42.696;23.494;2023-04-30T01:42:29;53725.16;;;-139.68;100.00
10940;BME280;5522;42.696;23.494;2023-04-30T01:45:11;53703.03;;;-139.68;100.00
10940;BME280;5522;42.696;23.494;2023-04-30T01:47:47;53737.22;;;-139.68;100.00
10940;BME280;5522;42.696;23.494;2023-04-30T01:50:24;53678.91;;;-139.68;100.00
10940;BME280;5522;42.696;23.494;2023-04-30T01:52:58;53753.28;;;-139.68;100.00
10940;BME280;5522;42.696;23.494;2023-04-30T01:55:29;53711.09;;;-139.68;100.00
10940;BME280;5522;42.696;23.494;2023-04-30T01:58:01;53727.16;;;-139.68;100.00
10940;BME280;5522;42.696;23.494;2023-04-30T02:00:30;53686.97;;;-139.68;100.00
10940;BME280;5522;42.696;23.494;2023-04-30T02:02:57;53688.97;;;-139.68;100.00
10940;BME280;5522;42.696;23.494;2023-04-30T02:05:24;53680.94;;;-139.68;100.00
10940;BME280;5522;42.696;23.494;2023-04-30T02:07:51;53717.13;;;-139.68;100.00
10940;BME280;5522;42.696;23.494;2023-04-30T02:10:21;53703.03;;;-139.68;100.00
10940;BME280;5522;42.696;23.494;2023-04-30T02:12:48;53670.88;;;-139.68;100.00
10940;BME280;5522;42.696;23.494;2023-04-30T02:15:15;53697.00;;;-139.68;100.00
10940;BME280;5522;42.696;23.494;2023-04-30T02:17:43;53707.06;;;-139.68;100.00
10940;BME280;5522;42.696;23.494;2023-04-30T02:20:10;53739.22;;;-139.68;100.00
10940;BME280;5522;42.696;23.494;2023-04-30T02:22:37;53699.03;;;-139.68;100.00
10940;BME280;5522;42.696;23.494;2023-04-30T02:25:05;53684.94;;;-139.68;100.00
10940;BME280;5522;42.696;23.494;2023-04-30T02:27:32;53729.16;;;-139.68;100.00
10940;BME280;5522;42.696;23.494;2023-04-30T02:29:59;53684.94;;;-139.68;100.00
10940;BME280;5522;42.696;23.494;2023-04-30T02:32:26;53674.91;;;-139.68;100.00
10940;BME280;5522;42.696;23.494;2023-04-30T02:34:55;53690.97;;;-139.68;100.00
10940;BME280;5522;42.696;23.494;2023-04-30T02:37:22;53729.16;;;-139.68;100.00
10940;BME280;5522;42.696;23.494;2023-04-30T02:39:50;53719.13;;;-139.68;100.00
10940;BME280;5522;42.696;23.494;2023-04-30T02:42:17;53688.97;;;-139.68;100.00
10940;BME280;5522;42.696;23.494;2023-04-30T02:44:44;53713.09;;;-139.68;100.00
10940;BME280;5522;42.696;23.494;2023-04-30T02:47:11;53703.03;;;-139.68;100.00
10940;BME280;5522;42.696;23.494;2023-04-30T02:49:38;53660.81;;;-139.68;100.00
10940;BME280;5522;42.696;23.494;2023-04-30T02:52:06;53693.00;;;-139.68;100.00
10940;BME280;5522;42.696;23.494;2023-04-30T02:54:34;53690.97;;;-139.68;100.00
10940;BME280;5522;42.696;23.494;2023-04-30T02:57:01;53713.09;;;-139.68;100.00
10940;BME280;5522;42.696;23.494;2023-04-30T02:59:28;53662.84;;;-139.68;100.00
10940;BME280;5522;42.696;23.494;2023-04-30T03:01:55;53693.00;;;-139.68;100.00
10940;BME280;5522;42.696;23.494;2023-04-30T03:04:21;53715.09;;;-139.68;100.00
10940;BME280;5522;42.696;23.494;2023-04-30T03:06:48;53731.19;;;-139.68;100.00
10940;BME280;5522;42.696;23.494;2023-04-30T03:09:17;53723.13;;;-139.68;100.00
10940;BME280;5522;42.696;23.494;2023-04-30T03:11:44;53695.00;;;-139.68;100.00
10940;BME280;5522;42.696;23.494;2023-04-30T03:14:10;53695.00;;;-139.68;100.00
10940;BME280;5522;42.696;23.494;2023-04-30T03:16:37;53719.13;;;-139.68;100.00
10940;BME280;5522;42.696;23.494;2023-04-30T03:19:04;53678.91;;;-139.68;100.00
10940;BME280;5522;42.696;23.494;2023-04-30T03:21:33;53703.03;;;-139.68;100.00
10940;BME280;5522;42.696;23.494;2023-04-30T03:24:00;53654.78;;;-139.68;100.00
10940;BME280;5522;42.696;23.494;2023-04-30T03:26:28;53711.09;;;-139.68;100.00
10940;BME280;5522;42.696;23.494;2023-04-30T03:28:55;53707.06;;;-139.68;100.00
10940;BME280;5522;42.696;23.494;2023-04-30T03:31:22;53711.09;;;-139.68;100.00
10940;BME280;5522;42.696;23.494;2023-04-30T03:33:49;53727.16;;;-139.68;100.00
10940;BME280;5522;42.696;23.494;2023-04-30T03:36:16;53697.00;;;-139.68;100.00
10940;BME280;5522;42.696;23.494;2023-04-30T03:38:42;53697.00;;;-139.68;100.00
10940;BME280;5522;42.696;23.494;2023-04-30T03:41:09;53686.97;;;-139.68;100.00
10940;BME280;5522;42.696;23.494;2023-04-30T03:43:37;53739.22;;;-139.68;100.00
10940;BME280;5522;42.696;23.494;2023-04-30T03:46:04;53670.88;;;-139.68;100.00
10940;BME280;5522;42.696;23.494;2023-04-30T03:48:31;53715.09;;;-139.68;100.00
10940;BME280;5522;42.696;23.494;2023-04-30T03:50:58;53719.13;;;-139.68;100.00
10940;BME280;5522;42.696;23.494;2023-04-30T03:53:25;53725.16;;;-139.68;100.00
10940;BME280;5522;42.696;23.494;2023-04-30T03:55:52;53686.97;;;-139.68;100.00
10940;BME280;5522;42.696;23.494;2023-04-30T03:58:20;53715.09;;;-139.68;100.00
10940;BME280;5522;42.696;23.494;2023-04-30T04:00:48;53723.13;;;-139.68;100.00
10940;BME280;5522;42.696;23.494;2023-04-30T04:03:15;53715.09;;;-139.68;100.00
10940;BME280;5522;42.696;23.494;2023-04-30T04:05:42;53701.03;;;-139.68;100.00
10940;BME280;5522;42.696;23.494;2023-04-30T04:08:09;53727.16;;;-139.68;100.00
10940;BME280;5522;42.696;23.494;2023-04-30T04:10:37;53715.09;;;-139.68;100.00
10940;BME280;5522;42.696;23.494;2023-04-30T04:13:04;53693.00;;;-139.68;100.00
10940;BME280;5522;42.696;23.494;2023-04-30T04:15:30;53745.25;;;-139.68;100.00
10940;BME280;5522;42.696;23.494;2023-04-30T04:17:59;53729.16;;;-139.68;100.00
10940;BME280;5522;42.696;23.494;2023-04-30T04:20:26;53695.00;;;-139.68;100.00
10940;BME280;5522;42.696;23.494;2023-04-30T04:22:54;53717.13;;;-139.68;100.00
10940;BME280;5522;42.696;23.494;2023-04-30T04:25:21;53715.09;;;-139.68;100.00
10940;BME280;5522;42.696;23.494;2023-04-30T04:27:49;53715.09;;;-139.68;100.00
10940;BME280;5522;42.696;23.494;2023-04-30T04:30:16;53725.16;;;-139.68;100.00
10940;BME280;5522;42.696;23.494;2023-04-30T04:32:43;53701.03;;;-139.68;100.00
10940;BME280;5522;42.696;23.494;2023-04-30T04:35:15;53699.03;;;-139.68;100.00
10940;BME280;5522;42.696;23.494;2023-04-30T04:37:42;53751.28;;;-139.68;100.00
10940;BME280;5522;42.696;23.494;2023-04-30T04:40:10;53713.09;;;-139.68;100.00
10940;BME280;5522;42.696;23.494;2023-04-30T04:42:38;53707.06;;;-139.68;100.00
10940;BME280;5522;42.696;23.494;2023-04-30T04:45:06;53743.25;;;-139.68;100.00
10940;BME280;5522;42.696;23.494;2023-04-30T04:47:34;53751.28;;;-139.68;100.00
10940;BME280;5522;42.696;23.494;2023-04-30T04:50:01;53777.41;;;-139.68;100.00
10940;BME280;5522;42.696;23.494;2023-04-30T04:52:29;53693.00;;;-139.68;100.00
10940;BME280;5522;42.696;23.494;2023-04-30T04:54:56;53749.28;;;-139.68;100.00
10940;BME280;5522;42.696;23.494;2023-04-30T04:57:23;53751.28;;;-139.68;100.00
10940;BME280;5522;42.696;23.494;2023-04-30T04:59:50;53749.28;;;-139.68;100.00
10940;BME280;5522;42.696;23.494;2023-04-30T05:02:17;53731.19;;;-139.68;100.00
10940;BME280;5522;42.696;23.494;2023-04-30T05:04:44;53733.19;;;-139.68;100.00
10940;BME280;5522;42.696;23.494;2023-04-30T05:07:11;53747.25;;;-139.68;100.00
10940;BME280;5522;42.696;23.494;2023-04-30T05:09:39;53759.31;;;-139.68;100.00
10940;BME280;5522;42.696;23.494;2023-04-30T05:12:06;53741.22;;;-139.68;100.00
10940;BME280;5522;42.696;23.494;2023-04-30T05:14:33;53693.00;;;-139.68;100.00
10940;BME280;5522;42.696;23.494;2023-04-30T05:17:01;53751.28;;;-139.68;100.00
10940;BME280;5522;42.696;23.494;2023-04-30T05:19:28;53747.25;;;-139.68;100.00
10940;BME280;5522;42.696;23.494;2023-04-30T05:21:55;53741.22;;;-139.68;100.00
10940;BME280;5522;42.696;23.494;2023-04-30T05:24:22;53767.38;;;-139.68;100.00
10940;BME280;5522;42.696;23.494;2023-04-30T05:26:51;53785.47;;;-139.68;100.00
10940;BME280;5522;42.696;23.494;2023-04-30T05:29:18;53761.34;;;-139.68;100.00
10940;BME280;5522;42.696;23.494;2023-04-30T05:31:44;53719.13;;;-139.68;100.00
10940;BME280;5522;42.696;23.494;2023-04-30T05:34:14;53741.22;;;-139.68;100.00
10940;BME280;5522;42.696;23.494;2023-04-30T05:36:41;53753.28;;;-139.68;100.00
10940;BME280;5522;42.696;23.494;2023-04-30T05:39:07;53737.22;;;-139.68;100.00
10940;BME280;5522;42.696;23.494;2023-04-30T05:41:36;53779.44;;;-139.68;100.00
10940;BME280;5522;42.696;23.494;2023-04-30T05:44:05;53743.25;;;-139.68;100.00
10940;BME280;5522;42.696;23.494;2023-04-30T05:46:34;53751.28;;;-139.68;100.00
10940;BME280;5522;42.696;23.494;2023-04-30T05:49:01;53733.19;;;-139.68;100.00
10940;BME280;5522;42.696;23.494;2023-04-30T05:51:28;53739.22;;;-139.68;100.00
10940;BME280;5522;42.696;23.494;2023-04-30T05:53:55;53787.47;;;-139.68;100.00
10940;BME280;5522;42.696;23.494;2023-04-30T05:56:22;53787.47;;;-139.68;100.00
10940;BME280;5522;42.696;23.494;2023-04-30T05:58:51;53735.19;;;-139.68;100.00
10940;BME280;5522;42.696;23.494;2023-04-30T06:01:19;53735.19;;;-139.68;100.00
10940;BME280;5522;42.696;23.494;2023-04-30T06:03:47;53725.16;;;-139.68;100.00
10940;BME280;5522;42.696;23.494;2023-04-30T06:06:14;53773.41;;;-139.68;100.00
10940;BME280;5522;42.696;23.494;2023-04-30T06:08:43;53767.38;;;-139.68;100.00
10940;BME280;5522;42.696;23.494;2023-04-30T06:11:10;53741.22;;;-139.68;100.00
10940;BME280;5522;42.696;23.494;2023-04-30T06:13:39;53779.44;;;-139.68;100.00
10940;BME280;5522;42.696;23.494;2023-04-30T06:16:06;53785.47;;;-139.68;100.00
10940;BME280;5522;42.696;23.494;2023-04-30T06:18:35;53763.34;;;-139.68;100.00
10940;BME280;5522;42.696;23.494;2023-04-30T06:21:01;53755.31;;;-139.68;100.00
10940;BME280;5522;42.696;23.494;2023-04-30T06:23:30;53743.25;;;-139.68;100.00
10940;BME280;5522;42.696;23.494;2023-04-30T06:25:57;53739.22;;;-139.68;100.00
10940;BME280;5522;42.696;23.494;2023-04-30T06:28:24;53747.25;;;-139.68;100.00
10940;BME280;5522;42.696;23.494;2023-04-30T06:30:51;53763.34;;;-139.68;100.00
10940;BME280;5522;42.696;23.494;2023-04-30T06:33:19;53703.03;;;-139.68;100.00
10940;BME280;5522;42.696;23.494;2023-04-30T06:35:47;53751.28;;;-139.68;100.00
10940;BME280;5522;42.696;23.494;2023-04-30T06:38:17;53755.31;;;-139.68;100.00
10940;BME280;5522;42.696;23.494;2023-04-30T06:40:46;53771.38;;;-139.68;100.00
10940;BME280;5522;42.696;23.494;2023-04-30T06:43:13;53781.44;;;-139.68;100.00
10940;BME280;5522;42.696;23.494;2023-04-30T06:45:44;53763.34;;;-139.68;95.08
10940;BME280;5522;42.696;23.494;2023-04-30T06:48:15;53779.44;;;-139.68;90.76
10940;BME280;5522;42.696;23.494;2023-04-30T06:50:42;53811.59;;;-139.68;90.29
10940;BME280;5522;42.696;23.494;2023-04-30T06:53:11;53773.41;;;-139.68;90.44
10940;BME280;5522;42.696;23.494;2023-04-30T06:55:39;53737.22;;;-139.68;90.32
10940;BME280;5522;42.696;23.494;2023-04-30T06:58:06;53795.50;;;-139.68;87.76
10940;BME280;5522;42.696;23.494;2023-04-30T07:00:33;53783.44;;;-139.68;80.71
10940;BME280;5522;42.696;23.494;2023-04-30T07:03:02;53811.59;;;-139.68;66.49
10940;BME280;5522;42.696;23.494;2023-04-30T07:05:29;53831.69;;;-139.68;57.43
10940;BME280;5522;42.696;23.494;2023-04-30T07:07:57;53799.53;;;-139.68;51.13
10940;BME280;5522;42.696;23.494;2023-04-30T07:10:35;53809.59;;;-139.68;51.40
10940;BME280;5522;42.696;23.494;2023-04-30T07:13:03;53825.66;;;-139.68;47.56
10940;BME280;5522;42.696;23.494;2023-04-30T07:15:38;53799.53;;;-139.68;46.31
10940;BME280;5522;42.696;23.494;2023-04-30T07:18:18;53819.63;;;-139.68;44.59
10940;BME280;5522;42.696;23.494;2023-04-30T07:20:46;53853.81;;;-139.68;44.04
10940;BME280;5522;42.696;23.494;2023-04-30T07:23:39;53855.81;;;-139.68;44.81
10940;BME280;5522;42.696;23.494;2023-04-30T07:26:07;53841.75;;;-139.68;45.58
10940;BME280;5522;42.696;23.494;2023-04-30T07:28:39;53839.75;;;-139.68;49.29
10940;BME280;5522;42.696;23.494;2023-04-30T07:31:06;53825.66;;;-139.68;51.78
10940;BME280;5522;42.696;23.494;2023-04-30T07:33:36;53803.56;;;-139.68;52.67
10940;BME280;5522;42.696;23.494;2023-04-30T07:36:18;53823.66;;;-139.68;61.40
10940;BME280;5522;42.696;23.494;2023-04-30T07:38:47;53831.69;;;-139.68;62.67
10940;BME280;5522;42.696;23.494;2023-04-30T07:41:18;53791.50;;;-139.68;64.45
10940;BME280;5522;42.696;23.494;2023-04-30T07:43:46;53823.66;;;-139.68;66.66
10940;BME280;5522;42.696;23.494;2023-04-30T07:46:14;53829.69;;;-139.68;68.15
10940;BME280;5522;42.696;23.494;2023-04-30T07:48:41;53823.66;;;-139.68;65.80
10940;BME280;5522;42.696;23.494;2023-04-30T07:51:08;53829.69;;;-139.68;70.76
10940;BME280;5522;42.696;23.494;2023-04-30T07:53:35;53823.66;;;-139.68;70.52
10940;BME280;5522;42.696;23.494;2023-04-30T07:56:02;53819.63;;;-139.68;75.41
10940;BME280;5522;42.696;23.494;2023-04-30T07:58:30;53841.75;;;-139.68;72.78
10940;BME280;5522;42.696;23.494;2023-04-30T08:00:57;53805.56;;;-139.68;72.66
10940;BME280;5522;42.696;23.494;2023-04-30T08:03:24;53867.88;;;-139.68;69.45
10940;BME280;5522;42.696;23.494;2023-04-30T08:05:51;53833.72;;;-139.68;61.79
10940;BME280;5522;42.696;23.494;2023-04-30T08:08:18;53833.72;;;-139.68;63.80
10940;BME280;5522;42.696;23.494;2023-04-30T08:10:46;53831.69;;;-139.68;59.68
10940;BME280;5522;42.696;23.494;2023-04-30T08:13:15;53815.63;;;-139.68;59.05
10940;BME280;5522;42.696;23.494;2023-04-30T08:15:43;53815.63;;;-139.68;57.41
10940;BME280;5522;42.696;23.494;2023-04-30T08:18:11;53807.56;;;-139.68;55.98
10940;BME280;5522;42.696;23.494;2023-04-30T08:20:38;53779.44;;;-139.68;55.84
10940;BME280;5522;42.696;23.494;2023-04-30T08:23:06;53853.81;;;-139.68;59.11
10940;BME280;5522;42.696;23.494;2023-04-30T08:25:33;53863.88;;;-139.68;60.46
10940;BME280;5522;42.696;23.494;2023-04-30T08:28:03;53843.75;;;-139.68;58.36
10940;BME280;5522;42.696;23.494;2023-04-30T08:30:33;53811.59;;;-139.68;58.43
10940;BME280;5522;42.696;23.494;2023-04-30T08:33:01;53799.53;;;-139.68;59.17
10940;BME280;5522;42.696;23.494;2023-04-30T08:35:28;53795.50;;;-139.68;60.25
10940;BME280;5522;42.696;23.494;2023-04-30T08:37:55;53831.69;;;-139.68;64.30
10940;BME280;5522;42.696;23.494;2023-04-30T08:40:22;53829.69;;;-139.68;67.03
10940;BME280;5522;42.696;23.494;2023-04-30T08:42:52;53819.63;;;-139.68;70.61
10940;BME280;5522;42.696;23.494;2023-04-30T08:45:24;53843.75;;;-139.68;73.04
10940;BME280;5522;42.696;23.494;2023-04-30T08:47:52;53823.66;;;-139.68;77.58
10940;BME280;5522;42.696;23.494;2023-04-30T08:50:21;53819.63;;;-139.68;79.79
10940;BME280;5522;42.696;23.494;2023-04-30T08:52:55;53831.69;;;-139.68;81.13
10940;BME280;5522;42.696;23.494;2023-04-30T08:55:23;53835.72;;;-139.68;76.64
10940;BME280;5522;42.696;23.494;2023-04-30T08:57:50;53787.47;;;-139.68;72.37
10940;BME280;5522;42.696;23.494;2023-04-30T09:00:19;53839.75;;;-139.68;64.27
10940;BME280;5522;42.696;23.494;2023-04-30T09:02:47;53815.63;;;-139.68;57.46
10940;BME280;5522;42.696;23.494;2023-04-30T09:05:18;53787.47;;;-139.68;54.50
10940;BME280;5522;42.696;23.494;2023-04-30T09:07:54;53823.66;;;-139.68;48.25
10940;BME280;5522;42.696;23.494;2023-04-30T09:10:21;53865.88;;;-139.68;40.53
10940;BME280;5522;42.696;23.494;2023-04-30T09:12:58;53888.00;;;-139.68;35.11
10940;BME280;5522;42.696;23.494;2023-04-30T09:15:36;53924.16;;;-139.68;31.31
10940;BME280;5522;42.696;23.494;2023-04-30T09:18:16;53920.16;;;-139.68;31.33
10940;BME280;5522;42.696;23.494;2023-04-30T09:20:55;53924.16;;;-139.68;33.61
10940;BME280;5522;42.696;23.494;2023-04-30T09:23:24;53908.09;;;-139.68;33.49
10940;BME280;5522;42.696;23.494;2023-04-30T09:25:52;53924.16;;;-139.68;32.29
10940;BME280;5522;42.696;23.494;2023-04-30T09:28:19;53916.13;;;-139.68;31.15
10940;BME280;5522;42.696;23.494;2023-04-30T09:30:49;53910.09;;;-139.68;29.98
10940;BME280;5522;42.696;23.494;2023-04-30T09:33:16;53908.09;;;-139.68;29.95
10940;BME280;5522;42.696;23.494;2023-04-30T09:35:43;53904.06;;;-139.68;29.38
10940;BME280;5522;42.696;23.494;2023-04-30T09:38:26;53928.19;;;-139.68;28.42
10940;BME280;5522;42.696;23.494;2023-04-30T09:40:57;53912.13;;;-139.68;28.16
10940;BME280;5522;42.696;23.494;2023-04-30T09:43:26;53930.22;;;-139.68;28.47
10940;BME280;5522;42.696;23.494;2023-04-30T09:45:54;53934.22;;;-139.68;28.47
10940;BME280;5522;42.696;23.494;2023-04-30T09:48:24;53900.06;;;-139.68;29.76
10940;BME280;5522;42.696;23.494;2023-04-30T09:50:51;53904.06;;;-139.68;31.23
10940;BME280;5522;42.696;23.494;2023-04-30T09:53:19;53912.13;;;-139.68;33.86
10940;BME280;5522;42.696;23.494;2023-04-30T09:55:50;53904.06;;;-139.68;34.39
10940;BME280;5522;42.696;23.494;2023-04-30T09:58:17;53944.28;;;-139.68;35.71
10940;BME280;5522;42.696;23.494;2023-04-30T10:00:45;53892.00;;;-139.68;36.43
10940;BME280;5522;42.696;23.494;2023-04-30T10:03:13;53926.19;;;-139.68;36.40
10940;BME280;5522;42.696;23.494;2023-04-30T10:05:42;53938.25;;;-139.68;39.83
10940;BME280;5522;42.696;23.494;2023-04-30T10:08:20;53928.19;;;-139.68;43.11
10940;BME280;5522;42.696;23.494;2023-04-30T10:10:56;53904.06;;;-139.68;49.37
10940;BME280;5522;42.696;23.494;2023-04-30T10:13:25;53916.13;;;-139.68;56.71
10940;BME280;5522;42.696;23.494;2023-04-30T10:15:58;53928.19;;;-139.68;69.04
10940;BME280;5522;42.696;23.494;2023-04-30T10:18:28;53900.06;;;-139.68;75.11
10940;BME280;5522;42.696;23.494;2023-04-30T10:20:58;53875.94;;;-139.68;76.08
10940;BME280;5522;42.696;23.494;2023-04-30T10:23:28;53883.97;;;-139.68;78.72
10940;BME280;5522;42.696;23.494;2023-04-30T10:25:57;53871.91;;;-139.68;85.97
10940;BME280;5522;42.696;23.494;2023-04-30T10:28:24;53885.97;;;-139.68;84.33
10940;BME280;5522;42.696;23.494;2023-04-30T10:30:52;53869.91;;;-139.68;82.46
10940;BME280;5522;42.696;23.494;2023-04-30T10:33:24;53914.13;;;-139.68;81.70
10940;BME280;5522;42.696;23.494;2023-04-30T10:35:57;53902.06;;;-139.68;73.05
10940;BME280;5522;42.696;23.494;2023-04-30T10:38:27;53888.00;;;-139.68;65.93
10940;BME280;5522;42.696;23.494;2023-04-30T10:40:56;53904.06;;;-139.68;67.27
10940;BME280;5522;42.696;23.494;2023-04-30T10:43:24;53904.06;;;-139.68;66.74
10940;BME280;5522;42.696;23.494;2023-04-30T10:45:52;53916.13;;;-139.68;62.94
10940;BME280;5522;42.696;23.494;2023-04-30T10:48:23;53940.25;;;-139.68;65.39
10940;BME280;5522;42.696;23.494;2023-04-30T10:50:54;53910.09;;;-139.68;60.08
10940;BME280;5522;42.696;23.494;2023-04-30T10:53:21;53892.00;;;-139.68;66.31
10940;BME280;5522;42.696;23.494;2023-04-30T10:55:52;53910.09;;;-139.68;68.73
10940;BME280;5522;42.696;23.494;2023-04-30T10:58:25;53912.13;;;-139.68;76.27
10940;BME280;5522;42.696;23.494;2023-04-30T11:00:59;53871.91;;;-139.68;87.40
10940;BME280;5522;42.696;23.494;2023-04-30T11:03:27;53877.94;;;-139.68;93.62
10940;BME280;5522;42.696;23.494;2023-04-30T11:05:55;53900.06;;;-139.68;98.30
10940;BME280;5522;42.696;23.494;2023-04-30T11:08:32;53922.16;;;-139.68;97.18
10940;BME280;5522;42.696;23.494;2023-04-30T11:10:59;53881.97;;;-139.68;97.52
10940;BME280;5522;42.696;23.494;2023-04-30T11:13:38;53908.09;;;-139.68;97.25
10940;BME280;5522;42.696;23.494;2023-04-30T11:16:05;53871.91;;;-139.68;99.12
10940;BME280;5522;42.696;23.494;2023-04-30T11:18:32;53900.06;;;-139.68;95.08
10940;BME280;5522;42.696;23.494;2023-04-30T11:21:02;53863.88;;;-139.68;89.64
10940;BME280;5522;42.696;23.494;2023-04-30T11:23:32;53865.88;;;-139.68;94.69
10940;BME280;5522;42.696;23.494;2023-04-30T11:25:59;53924.16;;;-139.68;89.03
10940;BME280;5522;42.696;23.494;2023-04-30T11:28:31;53906.06;;;-139.68;82.29
10940;BME280;5522;42.696;23.494;2023-04-30T11:31:00;53892.00;;;-139.68;71.60
10940;BME280;5522;42.696;23.494;2023-04-30T11:33:29;53892.00;;;-139.68;72.37
10940;BME280;5522;42.696;23.494;2023-04-30T11:35:58;53928.19;;;-139.68;73.12
10940;BME280;5522;42.696;23.494;2023-04-30T11:38:27;53900.06;;;-139.68;76.33
10940;BME280;5522;42.696;23.494;2023-04-30T11:40:55;53900.06;;;-139.68;76.26
10940;BME280;5522;42.696;23.494;2023-04-30T11:43:23;53906.06;;;-139.68;74.46
10940;BME280;5522;42.696;23.494;2023-04-30T11:46:03;53904.06;;;-139.68;63.66
10940;BME280;5522;42.696;23.494;2023-04-30T11:48:32;53900.06;;;-139.68;75.67
10940;BME280;5522;42.696;23.494;2023-04-30T11:51:02;53936.22;;;-139.68;83.41
10940;BME280;5522;42.696;23.494;2023-04-30T11:53:29;53883.97;;;-139.68;93.15
10940;BME280;5522;42.696;23.494;2023-04-30T11:55:55;53908.09;;;-139.68;94.76
10940;BME280;5522;42.696;23.494;2023-04-30T11:58:25;53845.78;;;-139.68;93.45
10940;BME280;5522;42.696;23.494;2023-04-30T12:00:53;53892.00;;;-139.68;94.21
10940;BME280;5522;42.696;23.494;2023-04-30T12:03:21;53877.94;;;-139.68;83.33
10940;BME280;5522;42.696;23.494;2023-04-30T12:05:48;53881.97;;;-139.68;73.52
10940;BME280;5522;42.696;23.494;2023-04-30T12:08:18;53892.00;;;-139.68;88.84
10940;BME280;5522;42.696;23.494;2023-04-30T12:10:45;53847.78;;;-139.68;85.57
10940;BME280;5522;42.696;23.494;2023-04-30T12:13:13;53908.09;;;-139.68;81.90
10940;BME280;5522;42.696;23.494;2023-04-30T12:15:41;53916.13;;;-139.68;79.98
10940;BME280;5522;42.696;23.494;2023-04-30T12:18:10;53869.91;;;-139.68;80.50
10940;BME280;5522;42.696;23.494;2023-04-30T12:20:40;53904.06;;;-139.68;83.23
10940;BME280;5522;42.696;23.494;2023-04-30T12:23:07;53877.94;;;-139.68;84.83
10940;BME280;5522;42.696;23.494;2023-04-30T12:25:40;53900.06;;;-139.68;87.49
10940;BME280;5522;42.696;23.494;2023-04-30T12:28:08;53877.94;;;-139.68;86.38
10940;BME280;5522;42.696;23.494;2023-04-30T12:30:35;53892.00;;;-139.68;89.25
10940;BME280;5522;42.696;23.494;2023-04-30T12:33:02;53898.03;;;-139.68;97.03
10940;BME280;5522;42.696;23.494;2023-04-30T12:35:30;53892.00;;;-139.68;100.00
10940;BME280;5522;42.696;23.494;2023-04-30T12:38:02;53857.84;;;-139.68;99.22
10940;BME280;5522;42.696;23.494;2023-04-30T12:40:29;53892.00;;;-139.68;97.50
10940;BME280;5522;42.696;23.494;2023-04-30T12:43:00;53906.06;;;-139.68;100.00